Time;durP1;ratioP1;P1;durP2;ratioP2;P2;SDS_P1;SDS_P2;PMS_P1;PMS_P2;Temp;Humidity;BMP_temperature;BMP_pressure;BME280_temperature;BME280_humidity;BME280_pressure;Samples;Min_cycle;Max_cycle;Signal;HPM_P1;HPM_P2
2020/12/18 00:00:53;;;;;;;19.13;14.37;;;7.40;99.90;;;5.44;100.00;101968.97;5025416;28;20247;-83
2020/12/18 00:03:38;;;;;;;25.47;15.83;;;7.30;99.90;;;5.61;100.00;101973.50;5027087;28;20223;-79
2020/12/18 00:06:31;;;;;;;22.27;12.10;;;7.30;99.90;;;5.55;100.00;101958.88;5033330;28;20231;-81
2020/12/18 00:09:16;;;;;;;24.33;16.93;;;7.40;99.90;;;5.51;100.00;101957.09;5031651;28;20208;-79
2020/12/18 00:12:01;;;;;;;27.83;16.60;;;7.40;99.90;;;5.52;100.00;101960.50;5037405;28;20218;-80
2020/12/18 00:14:47;;;;;;;29.10;18.37;;;7.40;99.90;;;5.66;100.00;101960.72;5023686;28;20223;-80
2020/12/18 00:17:32;;;;;;;28.30;16.50;;;7.40;99.90;;;5.52;100.00;101965.66;5019363;28;20312;-81
2020/12/18 00:20:17;;;;;;;25.00;16.23;;;7.40;99.90;;;5.54;100.00;101963.97;5018131;28;20212;-82
2020/12/18 00:23:02;;;;;;;22.77;14.73;;;7.40;99.90;;;5.64;100.00;101958.13;5030683;28;20203;-81
2020/12/18 00:25:49;;;;;;;22.83;13.43;;;7.40;99.90;;;5.55;100.00;101969.13;5019777;28;20326;-82
2020/12/18 00:28:34;;;;;;;23.93;15.83;;;7.40;99.90;;;5.45;100.00;101963.00;5019461;28;20565;-82
2020/12/18 00:31:27;;;;;;;26.90;15.20;;;7.30;99.90;;;5.49;100.00;101958.75;5026050;28;20215;-81
2020/12/18 00:34:13;;;;;;;26.20;14.33;;;7.30;99.90;;;5.40;100.00;101944.13;5028037;28;20282;-79
2020/12/18 00:36:58;;;;;;;22.43;12.47;;;7.30;99.90;;;5.42;100.00;101939.00;5019314;28;20308;-81
2020/12/18 00:39:43;;;;;;;29.30;13.97;;;7.30;99.90;;;5.40;100.00;101949.25;5024253;28;20203;-80
2020/12/18 00:42:29;;;;;;;27.97;13.83;;;7.30;99.90;;;5.41;100.00;101944.97;5023802;28;20283;-81
2020/12/18 00:45:14;;;;;;;23.60;12.93;;;7.30;99.90;;;5.42;100.00;101936.44;5017918;28;20256;-81
2020/12/18 00:48:00;;;;;;;22.57;12.77;;;7.30;99.90;;;5.43;100.00;101939.03;5026103;28;20199;-81
2020/12/18 00:50:46;;;;;;;20.27;12.80;;;7.30;99.90;;;5.43;100.00;101943.28;5028392;28;20208;-78
2020/12/18 00:53:34;;;;;;;25.33;12.50;;;7.30;99.90;;;5.45;100.00;101947.59;5021570;28;20604;-80
2020/12/18 00:56:19;;;;;;;19.80;13.80;;;7.30;99.90;;;5.38;100.00;101950.06;5036113;28;20228;-81
2020/12/18 00:59:04;;;;;;;19.27;12.37;;;7.30;99.90;;;5.39;100.00;101947.53;5025844;28;20226;-81
2020/12/18 01:01:57;;;;;;;22.83;12.17;;;7.30;99.90;;;5.31;100.00;101948.25;5039465;28;20268;-79
2020/12/18 01:04:43;;;;;;;20.90;10.90;;;7.20;99.90;;;5.30;100.00;101942.28;5026031;28;20724;-82
2020/12/18 01:07:28;;;;;;;24.63;12.67;;;7.30;99.90;;;5.27;100.00;101937.94;5022138;28;20287;-81
2020/12/18 01:10:14;;;;;;;21.57;11.97;;;7.20;99.90;;;5.23;100.00;101948.16;5021574;28;20280;-81
2020/12/18 01:12:59;;;;;;;21.27;11.03;;;7.20;99.90;;;5.22;100.00;101947.25;5020468;28;20628;-82
2020/12/18 01:15:44;;;;;;;20.13;11.87;;;7.20;99.90;;;5.21;100.00;101943.00;5027814;28;20362;-81
2020/12/18 01:18:30;;;;;;;15.90;11.20;;;7.20;99.90;;;5.17;100.00;101943.78;5019109;28;20259;-81
2020/12/18 01:21:15;;;;;;;16.47;11.27;;;7.20;99.90;;;5.20;100.00;101951.53;5022552;28;20212;-82
2020/12/18 01:24:01;;;;;;;22.30;13.33;;;7.20;99.90;;;5.23;100.00;101949.00;5027125;28;20303;-81
2020/12/18 01:26:47;;;;;;;18.10;11.97;;;7.20;99.90;;;5.28;100.00;101943.94;5036674;28;20227;-81
2020/12/18 01:29:32;;;;;;;25.47;12.60;;;7.20;99.90;;;5.30;100.00;101942.28;5019287;28;20903;-83
2020/12/18 01:32:17;;;;;;;22.80;12.17;;;7.10;99.90;;;5.29;100.00;101947.38;5027498;28;20215;-82
2020/12/18 01:35:02;;;;;;;16.67;12.00;;;7.20;99.90;;;5.29;100.00;101950.78;5032476;28;20224;-81
2020/12/18 01:37:48;;;;;;;20.73;9.90;;;7.10;99.90;;;5.21;100.00;101955.81;5027409;28;20212;-82
2020/12/18 01:40:33;;;;;;;21.50;11.40;;;7.10;99.90;;;5.31;100.00;101954.22;5029264;28;20207;-81
2020/12/18 01:43:19;;;;;;;19.53;11.63;;;7.10;99.90;;;5.24;100.00;101950.72;5030509;28;20228;-80
2020/12/18 01:46:11;;;;;;;21.97;11.33;;;7.10;99.90;;;5.18;100.00;101957.47;5035367;28;21065;-82
2020/12/18 01:48:58;;;;;;;20.97;10.43;;;7.10;99.90;;;5.18;100.00;101947.19;5037767;28;20211;-80
2020/12/18 01:51:44;;;;;;;21.13;10.77;;;7.10;99.90;;;5.19;100.00;101954.91;5032364;28;20204;-82
2020/12/18 01:54:30;;;;;;;22.43;11.83;;;7.10;99.90;;;5.34;100.00;101956.00;5034580;28;20227;-81
2020/12/18 01:57:15;;;;;;;19.97;10.33;;;7.10;99.90;;;5.30;100.00;101959.34;5051894;28;20207;-82
2020/12/18 02:00:01;;;;;;;18.53;8.40;;;7.10;99.90;;;5.23;100.00;101961.81;5045707;28;20200;-82
2020/12/18 02:02:46;;;;;;;20.30;10.87;;;7.10;99.90;;;5.19;100.00;101970.31;5034798;28;20251;-80
2020/12/18 02:05:32;;;;;;;17.20;9.50;;;7.10;99.90;;;5.23;100.00;101950.72;5041501;28;20258;-82
2020/12/18 02:08:18;;;;;;;20.33;10.80;;;7.10;99.90;;;5.23;100.00;101946.44;5033971;28;20232;-79
2020/12/18 02:11:04;;;;;;;18.57;10.87;;;7.10;99.90;;;5.21;100.00;101945.56;5038900;28;20267;-80
2020/12/18 02:13:52;;;;;;;18.93;11.20;;;7.10;99.90;;;5.23;100.00;101943.88;5037211;28;20199;-79
2020/12/18 02:16:37;;;;;;;21.70;11.27;;;7.10;99.90;;;5.13;100.00;101944.56;5039319;28;20228;-81
2020/12/18 02:19:27;;;;;;;18.90;9.97;;;7.10;99.90;;;5.19;100.00;101938.66;5047758;28;20214;-80
2020/12/18 02:22:14;;;;;;;19.20;10.80;;;7.10;99.90;;;5.32;100.00;101939.72;5039057;28;20216;-81
2020/12/18 02:25:06;;;;;;;20.07;8.90;;;7.10;99.90;;;5.03;100.00;101942.69;5038214;28;20279;-80
2020/12/18 02:27:52;;;;;;;23.37;10.87;;;7.00;99.90;;;5.09;100.00;101933.41;5038941;28;20230;-80
2020/12/18 02:30:38;;;;;;;17.73;10.33;;;7.10;99.90;;;5.16;100.00;101936.91;5041622;28;20207;-80
2020/12/18 02:33:23;;;;;;;15.83;9.77;;;7.00;99.90;;;5.22;100.00;101934.44;5036102;28;20275;-79
2020/12/18 02:36:10;;;;;;;18.50;10.53;;;7.00;99.90;;;5.09;100.00;101930.84;5030587;28;20204;-80
2020/12/18 02:39:00;;;;;;;23.73;11.70;;;7.00;99.90;;;5.28;100.00;101925.97;5022818;28;20227;-82
2020/12/18 02:41:46;;;;;;;20.43;11.00;;;7.00;99.90;;;5.30;100.00;101933.69;5025185;28;20208;-81
2020/12/18 02:44:32;;;;;;;15.57;8.97;;;7.00;99.90;;;5.20;100.00;101938.69;5025984;28;20719;-80
2020/12/18 02:47:17;;;;;;;21.97;10.80;;;7.00;99.90;;;5.07;100.00;101929.09;5033233;28;20227;-81
2020/12/18 02:50:06;;;;;;;20.43;11.30;;;7.00;99.90;;;5.14;100.00;101928.34;5026012;28;20211;-81
2020/12/18 02:52:52;;;;;;;20.07;9.87;;;7.00;99.90;;;5.18;100.00;101924.13;5034307;28;20200;-81
2020/12/18 02:55:37;;;;;;;21.70;11.77;;;7.00;99.90;;;5.20;100.00;101923.31;5033954;28;20284;-81
2020/12/18 02:58:22;;;;;;;14.40;8.87;;;7.00;99.90;;;5.22;100.00;101924.19;5020938;28;20212;-79
2020/12/18 03:01:26;;;;;;;17.57;8.93;;;7.00;99.90;;;5.18;100.00;101917.31;5026648;28;20208;-80
2020/12/18 03:04:20;;;;;;;;;;;;;;;;;;;;;
2020/12/18 03:07:18;;;;;;;18.17;9.63;;;7.00;99.90;;;5.05;100.00;101920.53;5027396;28;20224;-82
2020/12/18 03:10:03;;;;;;;20.07;9.87;;;7.00;99.90;;;5.11;100.00;101923.19;5025670;28;20207;-81
2020/12/18 03:12:48;;;;;;;19.77;9.47;;;7.00;99.90;;;4.99;100.00;101920.41;5052307;23;20235;-83
2020/12/18 03:15:34;;;;;;;17.40;9.23;;;6.90;99.90;;;5.04;100.00;101922.22;5034365;28;20662;-82
2020/12/18 03:18:20;;;;;;;14.17;8.47;;;6.90;99.90;;;5.01;100.00;101923.88;5039160;28;20207;-83
2020/12/18 03:21:05;;;;;;;22.57;9.50;;;6.90;99.90;;;5.04;100.00;101919.63;5043659;28;20307;-83
2020/12/18 03:23:50;;;;;;;18.90;9.53;;;6.90;99.90;;;5.01;100.00;101923.88;5041848;28;20222;-83
2020/12/18 03:26:36;;;;;;;18.80;9.87;;;6.90;99.90;;;5.02;100.00;101921.34;5042833;28;20211;-83
2020/12/18 03:29:21;;;;;;;22.37;11.03;;;6.90;99.90;;;5.10;100.00;101913.75;5046278;28;20204;-83
2020/12/18 03:32:06;;;;;;;18.73;9.23;;;6.90;99.90;;;5.22;100.00;101923.31;5042148;28;20247;-82
2020/12/18 03:34:52;;;;;;;18.70;9.00;;;6.90;99.90;;;5.11;100.00;101923.19;5040769;28;20689;-82
2020/12/18 03:37:37;;;;;;;18.90;9.70;;;6.90;99.90;;;5.01;100.00;101918.75;5041430;28;20202;-83
2020/12/18 03:40:23;;;;;;;19.60;9.63;;;6.90;99.90;;;5.16;100.00;101928.38;5048012;28;20265;-84
2020/12/18 03:43:08;;;;;;;22.63;10.37;;;6.90;99.90;;;5.14;100.00;101924.91;5046876;28;20206;-83
2020/12/18 03:45:53;;;;;;;18.33;8.80;;;6.90;99.90;;;5.09;100.00;101928.28;5042572;28;20287;-83
2020/12/18 03:48:39;;;;;;;17.77;8.63;;;6.90;99.90;;;5.08;100.00;101920.56;5033814;28;20204;-84
2020/12/18 03:51:25;;;;;;;18.10;8.30;;;6.90;99.90;;;5.18;100.00;101922.44;5036608;28;20261;-83
2020/12/18 03:54:10;;;;;;;15.47;8.00;;;6.90;99.90;;;5.08;100.00;101913.72;5039287;28;20291;-84
2020/12/18 03:56:56;;;;;;;17.17;8.43;;;6.90;99.90;;;5.05;100.00;101920.53;5046042;28;20248;-83
2020/12/18 03:59:41;;;;;;;20.03;8.90;;;6.90;99.90;;;5.05;100.00;101911.13;5042871;28;20663;-82
2020/12/18 04:02:26;;;;;;;16.30;9.57;;;6.90;99.90;;;5.12;100.00;101906.94;5044637;28;20238;-83
2020/12/18 04:05:11;;;;;;;18.10;9.50;;;6.90;99.90;;;5.13;100.00;101916.34;5045520;28;20239;-83
2020/12/18 04:07:57;;;;;;;21.43;12.17;;;6.90;99.90;;;5.14;100.00;101909.50;5044649;28;20254;-82
2020/12/18 04:10:43;;;;;;;17.73;9.83;;;6.90;99.90;;;5.07;100.00;101908.56;5045418;28;20212;-84
2020/12/18 04:13:28;;;;;;;20.27;10.67;;;6.90;99.90;;;4.98;100.00;101908.44;5045463;28;20214;-83
2020/12/18 04:16:13;;;;;;;18.37;9.33;;;6.90;99.90;;;4.90;100.00;101901.50;5036382;28;20221;-83
2020/12/18 04:18:59;;;;;;;20.20;9.97;;;6.80;99.90;;;4.94;100.00;101897.25;5044878;28;20195;-83
2020/12/18 04:21:44;;;;;;;20.37;10.27;;;6.90;99.90;;;4.97;100.00;101904.16;5043474;28;20254;-83
2020/12/18 04:24:30;;;;;;;20.47;9.20;;;6.80;99.90;;;4.82;100.00;101905.63;5034912;28;20583;-83
2020/12/18 04:27:15;;;;;;;22.60;10.60;;;6.80;99.90;;;4.99;100.00;101913.59;5039885;28;20600;-83
2020/12/18 04:30:00;;;;;;;23.37;10.70;;;6.80;99.90;;;4.98;100.00;101911.00;5035542;28;20224;-83
2020/12/18 04:32:46;;;;;;;17.07;9.57;;;6.80;99.90;;;4.78;100.00;101906.41;5037090;28;20244;-82
2020/12/18 04:35:31;;;;;;;22.67;10.13;;;6.80;99.90;;;4.88;100.00;101907.44;5029986;28;20247;-83
2020/12/18 04:38:16;;;;;;;22.23;9.43;;;6.80;99.90;;;4.83;100.00;101896.25;5043674;28;20407;-83
2020/12/18 04:41:06;;;;;;;18.30;8.33;;;6.80;99.90;;;4.83;100.00;101899.66;5040000;28;20286;-83
2020/12/18 04:43:52;;;;;;;23.23;10.53;;;6.80;99.90;;;4.91;100.00;101900.63;5032842;28;20247;-83
2020/12/18 04:46:39;;;;;;;26.13;10.20;;;6.80;99.90;;;5.00;100.00;101894.78;5043689;28;20295;-84
2020/12/18 04:49:29;;;;;;;17.47;9.37;;;6.80;99.90;;;5.01;100.00;101887.97;5041440;28;20761;-83
2020/12/18 04:52:14;;;;;;;22.13;10.50;;;6.70;99.90;;;5.03;100.00;101892.25;5038593;28;20243;-83
2020/12/18 04:55:01;;;;;;;18.47;9.23;;;6.80;99.90;;;4.86;100.00;101886.91;5030624;28;20207;-83
2020/12/18 04:57:48;;;;;;;14.63;9.00;;;6.70;99.90;;;4.87;100.00;101886.06;5040889;28;20299;-83
2020/12/18 05:00:35;;;;;;;14.60;8.20;;;6.70;99.90;;;4.94;100.00;101889.56;5023039;28;20200;-83
2020/12/18 05:03:22;;;;;;;18.23;10.47;;;6.70;99.90;;;5.07;100.00;101883.78;5041273;28;20692;-83
2020/12/18 05:06:06;;;;;;;16.57;9.97;;;6.70;99.90;;;5.00;100.00;101881.13;5039658;28;20203;-84
2020/12/18 05:08:52;;;;;;;16.80;9.33;;;6.70;99.90;;;4.98;100.00;101873.41;5031677;28;20311;-83
2020/12/18 05:11:37;;;;;;;17.93;9.87;;;6.80;99.90;;;5.01;100.00;101877.72;5039931;28;20259;-83
2020/12/18 05:14:29;;;;;;;18.00;9.93;;;6.70;99.90;;;5.02;100.00;101884.53;5045023;28;20207;-83
2020/12/18 05:17:14;;;;;;;18.33;9.83;;;6.70;99.90;;;4.99;100.00;101884.50;5042253;28;20208;-84
2020/12/18 05:20:01;;;;;;;18.77;10.33;;;6.70;99.90;;;5.12;100.00;101886.41;5038546;28;20211;-84
2020/12/18 05:22:46;;;;;;;14.27;8.03;;;6.70;99.90;;;5.18;100.00;101877.94;5034705;28;20222;-83
2020/12/18 05:25:31;;;;;;;18.33;8.67;;;6.70;99.90;;;5.19;100.00;101872.84;5044564;28;20226;-82
2020/12/18 05:28:20;;;;;;;16.47;8.13;;;6.80;99.90;;;5.08;100.00;101889.78;5032844;28;20271;-83
2020/12/18 05:31:11;;;;;;;18.87;9.37;;;6.80;99.90;;;5.21;100.00;101881.44;5036348;28;20227;-83
2020/12/18 05:34:00;;;;;;;15.87;8.90;;;6.80;99.90;;;5.36;100.00;101888.47;5040434;28;20216;-83
2020/12/18 05:36:46;;;;;;;16.37;8.37;;;6.80;99.90;;;5.23;100.00;101879.72;5031466;28;20203;-83
2020/12/18 05:39:34;;;;;;;11.27;7.10;;;6.80;99.90;;;5.20;100.00;101876.28;5037918;28;20207;-83
2020/12/18 05:42:20;;;;;;;14.03;7.80;;;6.80;99.90;;;5.32;100.00;101878.16;5034693;28;20223;-82
2020/12/18 05:45:13;;;;;;;17.77;7.73;;;6.80;99.90;;;5.19;100.00;101877.13;5030976;28;20224;-83
2020/12/18 05:48:01;;;;;;;13.20;6.77;;;6.80;99.90;;;5.23;100.00;101876.31;5027834;28;20288;-83
2020/12/18 05:50:46;;;;;;;14.60;7.27;;;6.80;99.90;;;5.35;100.00;101873.06;5031469;28;20706;-83
2020/12/18 05:53:33;;;;;;;18.67;8.27;;;6.80;99.90;;;5.33;100.00;101869.59;5032416;28;20262;-82
2020/12/18 05:56:29;;;;;;;16.47;7.93;;;6.80;99.90;;;5.35;100.00;101865.34;5031265;28;20834;-83
2020/12/18 05:59:16;;;;;;;14.20;7.50;;;6.80;99.90;;;5.38;100.00;101868.81;5033068;28;20244;-82
2020/12/18 06:02:03;;;;;;;14.03;7.73;;;6.80;99.90;;;5.49;100.00;101860.38;5038145;28;20286;-82
2020/12/18 06:04:49;;;;;;;13.53;7.50;;;6.80;99.90;;;5.39;100.00;101856.88;5034038;28;20223;-82
2020/12/18 06:07:37;;;;;;;15.10;8.20;;;6.90;99.90;;;5.42;100.00;101862.03;5040053;28;20258;-82
2020/12/18 06:10:25;;;;;;;13.20;7.67;;;6.90;99.90;;;5.49;100.00;101862.94;5031153;28;20239;-82
2020/12/18 06:13:10;;;;;;;14.87;6.80;;;6.90;99.90;;;5.51;100.00;101858.72;5034712;28;20221;-82
2020/12/18 06:15:59;;;;;;;11.27;5.70;;;6.90;99.90;;;5.54;100.00;101845.94;5034139;28;20208;-81
2020/12/18 06:18:44;;;;;;;12.43;7.30;;;6.90;99.90;;;5.54;100.00;101844.22;5029523;28;20316;-83
2020/12/18 06:21:31;;;;;;;15.77;7.20;;;6.90;99.90;;;5.57;100.00;101849.38;5030002;28;20641;-83
2020/12/18 06:24:16;;;;;;;9.23;5.43;;;7.00;99.90;;;5.71;100.00;101848.66;5030637;28;20219;-82
2020/12/18 06:27:01;;;;;;;14.83;7.27;;;7.00;99.90;;;5.70;100.00;101845.25;5029549;28;20523;-83
2020/12/18 06:29:49;;;;;;;11.13;5.97;;;7.00;99.90;;;5.76;100.00;101835.03;5032523;28;20207;-84
2020/12/18 06:32:34;;;;;;;14.90;6.70;;;7.00;99.90;;;5.86;100.00;101836.03;5034396;28;20228;-82
2020/12/18 06:35:29;;;;;;;11.93;6.93;;;7.00;99.90;;;5.89;100.00;101838.63;5029373;28;20262;-82
2020/12/18 06:38:26;;;;;;;13.17;6.43;;;7.10;99.90;;;5.93;100.00;101827.50;5030700;28;20605;-82
2020/12/18 06:41:26;;;;;;;14.73;7.07;;;7.10;99.90;;;5.93;100.00;101831.78;5034657;28;20236;-82
2020/12/18 06:44:34;;;;;;;13.13;6.83;;;7.10;99.90;;;5.87;100.00;101826.59;5028637;28;20371;-82
2020/12/18 06:47:29;;;;;;;13.50;7.07;;;7.20;99.90;;;5.77;100.00;101835.91;5037730;28;20211;-82
2020/12/18 06:50:16;;;;;;;9.43;6.93;;;7.20;99.90;;;5.89;100.00;101841.19;5035017;28;20495;-80
2020/12/18 06:53:04;;;;;;;13.37;6.43;;;7.20;99.90;;;5.91;100.00;101836.91;5037553;28;20230;-80
2020/12/18 06:55:50;;;;;;;8.13;5.77;;;7.20;99.90;;;5.92;100.00;101836.06;5034718;28;20199;-81
2020/12/18 06:58:35;;;;;;;12.27;5.77;;;7.30;99.90;;;5.92;100.00;101838.66;5033783;28;20220;-81
2020/12/18 07:01:30;;;;;;;12.37;5.97;;;7.30;99.90;;;5.89;100.00;101841.19;5031189;28;20247;-80
2020/12/18 07:04:19;;;;;;;11.97;5.67;;;7.30;99.90;;;5.91;100.00;101831.78;5031708;28;20236;-80
2020/12/18 07:07:22;;;;;;;13.00;6.13;;;7.30;99.90;;;5.86;100.00;101830.88;5033165;28;20262;-81
2020/12/18 07:11:05;;;;;;;13.77;6.67;;;7.40;99.90;;;6.07;100.00;101819.13;5031198;28;20355;-83
2020/12/18 07:13:52;;;;;;;9.97;5.80;;;7.40;99.90;;;6.10;100.00;101803.75;5033635;28;20814;-83
2020/12/18 07:16:37;;;;;;;10.43;5.47;;;7.40;99.90;;;6.10;100.00;101817.44;5034159;28;20231;-82
2020/12/18 07:19:23;;;;;;;11.93;6.00;;;7.40;99.90;;;5.96;100.00;101809.59;5030456;28;20207;-83
2020/12/18 07:22:10;;;;;;;13.97;5.40;;;7.40;99.90;;;6.09;100.00;101805.44;5036394;28;20303;-83
2020/12/18 07:24:55;;;;;;;11.90;5.00;;;7.40;99.90;;;6.09;100.00;101807.16;5027949;28;20248;-83
2020/12/18 07:27:41;;;;;;;13.07;5.63;;;7.40;99.90;;;6.10;100.00;101804.59;5030276;28;20295;-83
2020/12/18 07:30:26;;;;;;;13.53;6.10;;;7.50;99.90;;;6.02;100.00;101798.50;5033967;28;20246;-83
2020/12/18 07:33:13;;;;;;;12.53;6.60;;;7.50;99.90;;;6.12;100.00;101809.75;5024687;28;20238;-83
2020/12/18 07:36:01;;;;;;;9.50;5.80;;;7.50;99.90;;;6.17;100.00;101800.38;5029263;28;20204;-82
2020/12/18 07:38:46;;;;;;;10.53;6.07;;;7.50;99.90;;;6.18;100.00;101821.78;5021398;28;20595;-82
2020/12/18 07:41:32;;;;;;;13.87;5.63;;;7.50;99.90;;;6.19;100.00;101805.53;5022885;28;20374;-82
2020/12/18 07:44:18;;;;;;;11.90;6.00;;;7.50;99.90;;;6.20;100.00;101808.13;5030143;28;20247;-82
2020/12/18 07:47:04;;;;;;;10.00;5.30;;;7.50;99.90;;;6.13;100.00;101809.75;5034715;28;20875;-82
2020/12/18 07:49:53;;;;;;;10.17;6.03;;;7.60;99.90;;;6.13;100.00;101798.63;5025788;28;20231;-82
2020/12/18 07:52:38;;;;;;;9.93;5.43;;;7.60;99.90;;;6.06;100.00;101809.69;5019916;28;20240;-80
2020/12/18 07:55:24;;;;;;;12.57;5.40;;;7.60;99.90;;;6.08;100.00;101805.41;5027898;28;20250;-83
2020/12/18 07:58:11;;;;;;;13.40;5.87;;;7.60;99.90;;;5.99;100.00;101815.63;5027623;28;20243;-83
2020/12/18 08:01:15;;;;;;;10.47;5.03;;;7.60;99.90;;;5.99;100.00;101831.03;5032158;28;20266;-83
2020/12/18 08:04:01;;;;;;;12.70;5.40;;;7.60;99.90;;;5.86;100.00;101825.75;5020116;28;20428;-83
2020/12/18 08:06:46;;;;;;;13.57;5.83;;;7.60;99.90;;;5.89;100.00;101838.63;5032856;28;20211;-82
2020/12/18 08:09:32;;;;;;;11.23;5.20;;;7.60;99.90;;;5.83;100.00;101836.00;5036910;28;20219;-82
2020/12/18 08:12:18;;;;;;;13.00;6.20;;;7.60;99.90;;;5.87;100.00;101848.00;5034698;28;20579;-82
2020/12/18 08:15:12;;;;;;;11.70;5.53;;;7.60;99.90;;;5.82;100.00;101844.53;5039142;28;20292;-83
2020/12/18 08:17:59;;;;;;;12.47;5.80;;;7.60;99.90;;;5.83;100.00;101845.38;5039095;28;20203;-83
2020/12/18 08:20:45;;;;;;;12.70;6.17;;;7.60;99.90;;;5.92;100.00;101858.31;5038606;28;20200;-80
2020/12/18 08:23:34;;;;;;;13.37;5.93;;;7.60;99.90;;;6.13;100.00;101860.28;5038564;28;20332;-80
2020/12/18 08:26:23;;;;;;;14.87;6.87;;;7.60;99.90;;;6.24;100.00;101868.94;5044550;28;20195;-79
2020/12/18 08:29:10;;;;;;;14.93;6.33;;;7.60;99.90;;;6.27;100.00;101870.69;5040047;28;20651;-79
2020/12/18 08:31:57;;;;;;;12.93;5.97;;;7.60;99.90;;;6.23;100.00;101877.50;5033992;28;20251;-79
2020/12/18 08:34:45;;;;;;;12.37;5.90;;;7.60;99.90;;;6.21;100.00;101871.47;5035516;28;20299;-79
2020/12/18 08:37:31;;;;;;;8.13;5.30;;;7.60;99.90;;;6.28;100.00;101873.25;5034712;28;20227;-80
2020/12/18 08:40:21;;;;;;;10.80;5.77;;;7.70;99.90;;;6.31;100.00;101883.56;5044262;28;20222;-80
2020/12/18 08:43:06;;;;;;;13.80;5.80;;;7.70;99.90;;;6.36;100.00;101891.31;5041013;28;20238;-80
2020/12/18 08:45:51;;;;;;;14.43;6.50;;;7.70;99.90;;;6.42;100.00;101899.09;5032852;28;20289;-80
2020/12/18 08:48:36;;;;;;;15.03;6.30;;;7.70;99.90;;;6.55;100.00;101901.78;5037243;28;20564;-82
2020/12/18 08:51:22;;;;;;;9.80;5.07;;;7.80;99.90;;;6.63;100.00;101884.72;5026232;28;20227;-82
2020/12/18 08:54:29;;;;;;;9.97;5.37;;;7.80;99.90;;;6.74;100.00;101895.09;5038543;28;20242;-81
2020/12/18 08:57:27;;;;;;;11.43;5.80;;;7.80;99.90;;;6.78;100.00;101897.69;5037953;28;20239;-80
2020/12/18 09:00:14;;;;;;;12.03;4.77;;;7.90;99.90;;;6.82;100.00;101898.56;5038825;28;20211;-80
2020/12/18 09:03:01;;;;;;;10.90;5.17;;;7.90;99.90;;;6.82;100.00;101893.41;5040092;28;20376;-80
2020/12/18 09:05:46;;;;;;;11.63;5.37;;;8.00;99.90;;;6.85;100.00;101903.75;5045094;28;20358;-80
2020/12/18 09:08:32;;;;;;;13.50;5.40;;;8.00;99.90;;;6.90;100.00;101901.22;5042244;28;20195;-80
2020/12/18 09:11:24;;;;;;;10.47;5.10;;;8.10;99.90;;;6.94;100.00;101905.50;5041554;28;20317;-80
2020/12/18 09:14:27;;;;;;;11.77;5.67;;;8.10;99.90;;;6.96;100.00;101903.81;5039801;28;20708;-80
2020/12/18 09:17:16;;;;;;;11.87;5.63;;;8.20;99.90;;;6.99;100.00;101907.25;5043894;28;20203;-80
2020/12/18 09:20:01;;;;;;;11.67;5.50;;;8.20;99.90;;;7.03;100.00;101906.44;5039361;28;20204;-80
2020/12/18 09:22:58;;;;;;;9.67;5.20;;;8.30;99.90;;;7.07;100.00;101896.16;5036946;28;20231;-80
2020/12/18 09:25:50;;;;;;;8.10;4.10;;;8.30;99.90;;;7.14;100.00;101908.22;5043341;28;20223;-82
2020/12/18 09:28:37;;;;;;;8.90;5.87;;;8.40;99.90;;;7.21;100.00;101897.13;5045739;28;20656;-82
2020/12/18 09:31:24;;;;;;;13.70;5.93;;;8.40;99.90;;;7.30;100.00;101899.72;5030216;28;20287;-81
2020/12/18 09:34:14;;;;;;;18.97;6.30;;;8.40;99.90;;;7.38;100.00;101884.31;5041456;28;20219;-81
2020/12/18 09:37:10;;;;;;;10.00;4.60;;;8.50;99.90;;;7.48;100.00;101895.53;5044403;28;20619;-81
2020/12/18 09:39:55;;;;;;;9.00;5.47;;;8.60;99.90;;;7.48;100.00;101895.53;5044124;28;20198;-81
2020/12/18 09:42:41;;;;;;;12.10;6.07;;;8.60;99.90;;;7.42;100.00;101883.50;5043468;28;20255;-81
2020/12/18 09:45:26;;;;;;;17.23;6.53;;;8.70;99.90;;;7.47;100.00;101896.38;5042432;28;20279;-81
2020/12/18 09:48:11;;;;;;;7.97;5.67;;;8.70;99.90;;;8.75;100.00;101882.09;5039823;28;20218;-81
2020/12/18 09:50:58;;;;;;;10.30;5.50;;;8.80;99.90;;;9.34;100.00;101881.97;5047952;28;20202;-81
2020/12/18 09:53:45;;;;;;;11.73;6.30;;;8.90;99.90;;;9.50;100.00;101875.03;5037554;28;20218;-81
2020/12/18 09:56:30;;;;;;;8.43;5.37;;;9.00;99.90;;;9.82;100.00;101869.69;5042387;28;20211;-82
2020/12/18 09:59:16;;;;;;;11.33;5.63;;;9.20;99.90;;;10.07;100.00;101874.75;5038177;28;20273;-82
2020/12/18 10:02:01;;;;;;;9.83;5.97;;;9.50;99.90;;;10.14;100.00;101875.53;5033168;28;20704;-82
2020/12/18 10:04:47;;;;;;;9.20;4.60;;;9.70;99.90;;;9.89;100.00;101878.28;5036199;28;20756;-82
2020/12/18 10:07:32;;;;;;;9.57;5.20;;;10.00;99.90;;;10.34;100.00;101878.03;5033314;28;20624;-82
2020/12/18 10:10:17;;;;;;;9.47;5.00;;;10.30;99.90;;;10.42;100.00;101898.66;5034840;28;20223;-83
2020/12/18 10:13:03;;;;;;;12.07;4.77;;;10.60;99.90;;;10.57;100.00;101889.91;5028775;28;20242;-83
2020/12/18 10:15:49;;;;;;;8.63;4.37;;;10.90;99.90;;;10.70;100.00;101891.53;5025356;28;20228;-83
2020/12/18 10:18:34;;;;;;;8.87;4.30;;;11.20;99.90;;;10.58;100.00;101902.84;5026361;28;20222;-83
2020/12/18 10:21:19;;;;;;;10.27;4.30;;;11.50;99.90;;;10.98;100.00;101904.22;5032629;28;20238;-83
2020/12/18 10:24:04;;;;;;;8.83;3.70;;;11.80;99.90;;;10.91;100.00;101900.84;5027205;28;20284;-84
2020/12/18 10:26:49;;;;;;;8.20;4.30;;;12.10;99.90;;;10.87;100.00;101902.59;5034137;28;20238;-83
2020/12/18 10:29:34;;;;;;;11.90;4.30;;;12.50;99.90;;;11.23;100.00;101902.25;5030606;28;20239;-84
2020/12/18 10:32:22;;;;;;;9.40;4.63;;;12.80;99.90;;;11.64;100.00;101895.72;5015072;28;20645;-84
2020/12/18 10:35:08;;;;;;;8.03;4.10;;;13.10;99.90;;;11.56;100.00;101906.19;5021542;28;20744;-84
2020/12/18 10:37:54;;;;;;;6.60;4.10;;;13.40;99.90;;;11.73;100.00;101902.53;5014091;28;20208;-83
2020/12/18 10:40:41;;;;;;;6.70;4.00;;;13.70;99.90;;;11.45;100.00;101908.03;5022732;28;20219;-84
2020/12/18 10:43:26;;;;;;;9.47;3.90;;;14.00;99.90;;;11.37;100.00;101895.19;5012629;28;20208;-84
2020/12/18 10:46:11;;;;;;;6.80;3.57;;;14.30;99.90;;;11.71;100.00;101891.31;5023084;28;20267;-84
2020/12/18 10:48:57;;;;;;;6.13;3.90;;;14.60;99.90;;;11.83;100.00;101893.75;5023427;28;20291;-84
2020/12/18 10:51:44;;;;;;;6.77;3.63;;;14.90;99.90;;;11.76;100.00;101892.09;5030638;28;20640;-84
2020/12/18 10:54:29;;;;;;;7.77;3.73;;;15.10;99.90;;;11.71;100.00;101897.34;5026981;28;20262;-84
2020/12/18 10:57:14;;;;;;;12.60;4.53;;;15.40;99.90;;;11.83;100.00;101891.16;5032502;28;20270;-83
2020/12/18 10:59:59;;;;;;;7.33;4.20;;;15.60;99.90;;;11.99;100.00;101888.38;5031125;28;20581;-84
2020/12/18 11:02:45;;;;;;;6.53;3.97;;;15.80;99.90;;;11.91;100.00;101893.63;5044577;28;20243;-84
2020/12/18 11:05:31;;;;;;;7.37;4.27;;;16.00;99.90;;;11.77;100.00;101881.72;5050551;28;20247;-84
2020/12/18 11:08:16;;;;;;;9.90;3.83;;;16.20;99.90;;;12.22;100.00;101890.63;5055685;28;20191;-84
2020/12/18 11:11:01;;;;;;;11.27;4.07;;;16.30;99.90;;;13.14;100.00;101883.03;5045748;28;20238;-84
2020/12/18 11:13:47;;;;;;;5.83;3.63;;;16.50;99.90;;;13.05;100.00;101878.00;5049968;28;20248;-81
2020/12/18 11:16:32;;;;;;;6.33;3.30;;;16.60;99.90;;;12.73;100.00;101877.69;5043858;28;20215;-81
2020/12/18 11:19:17;;;;;;;8.50;4.07;;;16.80;99.90;;;13.31;100.00;101875.75;5054564;28;20901;-81
2020/12/18 11:22:03;;;;;;;6.97;3.67;;;17.00;99.90;;;13.58;100.00;101886.53;5050199;28;20282;-81
2020/12/18 11:24:49;;;;;;;6.80;3.47;;;17.10;99.90;;;13.71;100.00;101888.84;5055326;28;20225;-81
2020/12/18 11:27:34;;;;;;;7.57;3.83;;;17.40;99.90;;;13.41;100.00;101878.22;5054407;28;20208;-82
2020/12/18 11:30:19;;;;;;;6.30;3.83;;;17.50;99.90;;;13.86;100.00;101880.69;5051103;28;20300;-81
2020/12/18 11:33:04;;;;;;;5.57;3.60;;;17.70;99.90;;;14.33;100.00;101876.13;5050451;28;20220;-81
2020/12/18 11:35:50;;;;;;;6.03;3.40;;;17.80;99.90;;;14.04;100.00;101884.66;5046006;28;20213;-82